Time;durP1;ratioP1;P1;durP2;ratioP2;P2;SDS_P1;SDS_P2;PMS_P1;PMS_P2;Temp;Humidity;BMP_temperature;BMP_pressure;BME280_temperature;BME280_humidity;BME280_pressure;Samples;Min_cycle;Max_cycle;Signal;HPM_P1;HPM_P2
2024/03/12 00:02:25;;;;;;;;;;;16.60;62.30;;;;;;5114195;28;19920;-69
2024/03/12 00:04:50;;;;;;;;;;;16.50;62.40;;;;;;5114440;28;19915;-69
2024/03/12 00:07:21;;;;;;;;;;;16.60;62.80;;;;;;5114218;28;20296;-69
2024/03/12 00:09:47;;;;;;;;;;;16.60;62.90;;;;;;5114155;28;20433;-69
2024/03/12 00:12:13;;;;;;;;;;;16.60;63.10;;;;;;5114209;28;19998;-69
2024/03/12 00:14:41;;;;;;;;;;;16.50;62.80;;;;;;5114683;28;20270;-70
2024/03/12 00:17:08;;;;;;;;;;;17.90;59.70;;;;;;5114333;28;20304;-69
2024/03/12 00:19:33;;;;;;;;;;;16.70;62.60;;;;;;5114057;28;19915;-69
2024/03/12 00:21:59;;;;;;;;;;;16.70;63.00;;;;;;5113990;28;20357;-69
2024/03/12 00:24:24;;;;;;;;;;;16.60;62.60;;;;;;5113955;28;19911;-69
2024/03/12 00:26:50;;;;;;;;;;;16.70;62.70;;;;;;5095864;28;20011;-69
2024/03/12 00:29:18;;;;;;;;;;;16.70;62.90;;;;;;5113789;28;20374;-70
2024/03/12 00:31:45;;;;;;;;;;;16.70;62.60;;;;;;5114121;28;19912;-69
2024/03/12 00:34:11;;;;;;;;;;;16.80;62.90;;;;;;5113685;28;20354;-70
2024/03/12 00:36:36;;;;;;;;;;;16.60;62.70;;;;;;5113728;28;19911;-69
2024/03/12 00:39:02;;;;;;;;;;;16.70;62.90;;;;;;5113909;28;20250;-69
2024/03/12 00:41:28;;;;;;;;;;;16.60;62.20;;;;;;5114400;28;20328;-69
2024/03/12 00:43:54;;;;;;;;;;;16.70;62.30;;;;;;5113615;28;20326;-69
2024/03/12 00:46:21;;;;;;;;;;;16.80;62.80;;;;;;5113583;28;20003;-69
2024/03/12 00:48:46;;;;;;;;;;;16.70;63.00;;;;;;5113444;28;19916;-69
2024/03/12 00:51:12;;;;;;;;;;;16.60;62.80;;;;;;5113387;28;19915;-69
2024/03/12 00:53:39;;;;;;;;;;;16.70;62.70;;;;;;5113870;28;19908;-69
2024/03/12 00:56:04;;;;;;;;;;;16.80;62.90;;;;;;5113033;28;19908;-69
2024/03/12 00:58:33;;;;;;;;;;;16.70;62.70;;;;;;5113319;28;19915;-69
2024/03/12 01:00:58;;;;;;;;;;;16.70;62.90;;;;;;5113418;28;19912;-69
2024/03/12 01:03:26;;;;;;;;;;;16.70;62.30;;;;;;5113149;28;19920;-69
2024/03/12 01:05:53;;;;;;;;;;;16.70;62.70;;;;;;5113474;28;19907;-69
2024/03/12 01:08:20;;;;;;;;;;;16.70;62.80;;;;;;5113353;28;19912;-69
2024/03/12 01:10:46;;;;;;;;;;;16.70;62.60;;;;;;5113725;28;20002;-69
2024/03/12 01:13:11;;;;;;;;;;;16.70;62.80;;;;;;5113386;28;19955;-69
2024/03/12 01:15:37;;;;;;;;;;;16.70;62.80;;;;;;5113071;28;20002;-69
2024/03/12 01:18:03;;;;;;;;;;;16.60;62.80;;;;;;5113106;28;20271;-69
2024/03/12 01:20:28;;;;;;;;;;;16.70;62.10;;;;;;5113012;28;19915;-69
2024/03/12 01:22:54;;;;;;;;;;;16.70;62.40;;;;;;5113096;28;19947;-69
2024/03/12 01:25:24;;;;;;;;;;;16.70;62.70;;;;;;5112987;28;19915;-69
2024/03/12 01:27:55;;;;;;;;;;;16.70;62.80;;;;;;5112926;28;19908;-69
2024/03/12 01:30:26;;;;;;;;;;;16.70;62.90;;;;;;5112836;28;20369;-69
2024/03/12 01:32:52;;;;;;;;;;;16.70;62.80;;;;;;5113297;28;19915;-69
2024/03/12 01:35:20;;;;;;;;;;;16.70;62.90;;;;;;5112836;28;20400;-69
2024/03/12 01:37:52;;;;;;;;;;;16.60;62.80;;;;;;5112929;28;19930;-69
2024/03/12 01:40:22;;;;;;;;;;;16.80;59.20;;;;;;5112772;28;19908;-70
2024/03/12 01:43:06;;;;;;;;;;;16.70;63.60;;;;;;5112873;28;20357;-69
2024/03/12 01:45:33;;;;;;;;;;;17.00;59.00;;;;;;5119601;28;20254;-69
2024/03/12 01:48:03;;;;;;;;;;;16.70;62.90;;;;;;5112776;28;19907;-70
2024/03/12 01:50:29;;;;;;;;;;;16.60;62.80;;;;;;5112749;28;20394;-70
2024/03/12 01:52:59;;;;;;;;;;;16.60;63.00;;;;;;5112776;28;19929;-70
2024/03/12 01:55:24;;;;;;;;;;;16.60;59.10;;;;;;5112692;28;19955;-70
2024/03/12 01:57:52;;;;;;;;;;;16.60;63.30;;;;;;5112700;28;19950;-70
2024/03/12 02:00:18;;;;;;;;;;;16.70;63.60;;;;;;5112592;28;19943;-70
2024/03/12 02:02:45;;;;;;;;;;;16.70;62.70;;;;;;5112399;28;19954;-70
2024/03/12 02:05:11;;;;;;;;;;;16.70;63.20;;;;;;5112829;28;19914;-70
2024/03/12 02:07:46;;;;;;;;;;;16.70;63.50;;;;;;5114677;28;19908;-70
2024/03/12 02:10:16;;;;;;;;;;;16.80;59.40;;;;;;5116759;28;20282;-69
2024/03/12 02:12:44;;;;;;;;;;;16.80;59.40;;;;;;5116748;28;19912;-69
2024/03/12 02:15:09;;;;;;;;;;;16.70;63.30;;;;;;5116455;28;19934;-70
2024/03/12 02:17:35;;;;;;;;;;;16.70;62.80;;;;;;5116500;28;19908;-70
2024/03/12 02:20:00;;;;;;;;;;;16.70;63.20;;;;;;5116447;28;19912;-70
2024/03/12 02:22:27;;;;;;;;;;;16.60;63.40;;;;;;5116401;28;19908;-70
2024/03/12 02:24:52;;;;;;;;;;;16.70;63.10;;;;;;5116561;28;20303;-69
2024/03/12 02:27:18;;;;;;;;;;;16.70;63.00;;;;;;5116453;28;19908;-70
2024/03/12 02:29:44;;;;;;;;;;;16.70;63.30;;;;;;5097849;28;19916;-70
2024/03/12 02:32:10;;;;;;;;;;;17.00;63.30;;;;;;5116170;28;19943;-70
2024/03/12 02:34:35;;;;;;;;;;;16.70;63.20;;;;;;5116110;28;19908;-70
2024/03/12 02:37:02;;;;;;;;;;;16.70;63.10;;;;;;5116670;28;19915;-70
2024/03/12 02:39:30;;;;;;;;;;;16.70;63.10;;;;;;5116116;28;19908;-70
2024/03/12 02:41:58;;;;;;;;;;;16.70;63.20;;;;;;5116070;28;19908;-70
2024/03/12 02:44:24;;;;;;;;;;;16.80;63.20;;;;;;5116007;28;20000;-70
2024/03/12 02:46:51;;;;;;;;;;;16.60;63.10;;;;;;5116196;28;19908;-69
2024/03/12 02:49:18;;;;;;;;;;;16.70;62.90;;;;;;5116052;28;19955;-70
2024/03/12 02:51:45;;;;;;;;;;;16.70;63.10;;;;;;5116043;28;19908;-70
2024/03/12 02:54:15;;;;;;;;;;;16.60;63.00;;;;;;5116007;28;19912;-70
2024/03/12 02:56:41;;;;;;;;;;;16.70;59.20;;;;;;5115649;28;19908;-70
2024/03/12 02:59:09;;;;;;;;;;;17.40;63.20;;;;;;5115600;28;19914;-69
2024/03/12 03:01:35;;;;;;;;;;;16.70;62.70;;;;;;5115401;28;19908;-70
2024/03/12 03:04:01;;;;;;;;;;;16.60;62.90;;;;;;5115849;28;19925;-70
2024/03/12 03:06:27;;;;;;;;;;;16.70;63.10;;;;;;5115888;28;19908;-69
2024/03/12 03:08:53;;;;;;;;;;;16.60;62.90;;;;;;5115360;28;19938;-70
2024/03/12 03:11:19;;;;;;;;;;;16.60;62.90;;;;;;5115676;28;19916;-70
2024/03/12 03:13:45;;;;;;;;;;;16.60;63.00;;;;;;5115675;28;19908;-70
2024/03/12 03:16:11;;;;;;;;;;;16.60;63.00;;;;;;5115339;28;20331;-69
2024/03/12 03:18:37;;;;;;;;;;;16.60;63.00;;;;;;5115061;28;19991;-70
2024/03/12 03:21:02;;;;;;;;;;;16.70;63.00;;;;;;5115237;28;19924;-70
2024/03/12 03:23:28;;;;;;;;;;;16.70;62.60;;;;;;5115742;28;19974;-69
2024/03/12 03:25:53;;;;;;;;;;;16.60;63.10;;;;;;5115193;28;19993;-70
2024/03/12 03:28:19;;;;;;;;;;;16.60;63.20;;;;;;5115085;28;19912;-70
2024/03/12 03:30:45;;;;;;;;;;;16.60;63.00;;;;;;5115186;28;19965;-70
2024/03/12 03:33:11;;;;;;;;;;;16.70;62.60;;;;;;5115143;28;19907;-69
2024/03/12 03:35:37;;;;;;;;;;;16.60;63.00;;;;;;5115035;28;20306;-70
2024/03/12 03:38:03;;;;;;;;;;;16.70;62.90;;;;;;5114964;28;19958;-70
2024/03/12 03:40:28;;;;;;;;;;;16.60;62.70;;;;;;5114884;28;19907;-70
2024/03/12 03:42:56;;;;;;;;;;;16.60;62.90;;;;;;5114843;28;19914;-70
2024/03/12 03:45:24;;;;;;;;;;;16.60;63.20;;;;;;5114764;28;20376;-70
2024/03/12 03:47:50;;;;;;;;;;;16.60;59.00;;;;;;5114785;28;19908;-70
2024/03/12 03:50:16;;;;;;;;;;;16.60;62.80;;;;;;5115481;28;20278;-70
2024/03/12 03:52:42;;;;;;;;;;;16.70;62.90;;;;;;5114649;28;19915;-70
2024/03/12 03:55:09;;;;;;;;;;;16.60;62.70;;;;;;5114559;28;19911;-70
2024/03/12 03:57:35;;;;;;;;;;;16.60;62.80;;;;;;5114601;28;20123;-70
2024/03/12 04:00:02;;;;;;;;;;;16.60;62.80;;;;;;5114453;28;19908;-70
2024/03/12 04:02:28;;;;;;;;;;;16.60;62.10;;;;;;5114374;28;19920;-70
2024/03/12 04:04:53;;;;;;;;;;;16.60;62.80;;;;;;5114372;28;20545;-70
2024/03/12 04:07:23;;;;;;;;;;;16.60;62.80;;;;;;5114422;28;19957;-69
2024/03/12 04:09:48;;;;;;;;;;;16.60;63.10;;;;;;5114562;28;19924;-69
2024/03/12 04:12:13;;;;;;;;;;;16.60;62.60;;;;;;5114239;28;19914;-69
2024/03/12 04:14:41;;;;;;;;;;;16.60;62.60;;;;;;5114182;28;19972;-69
2024/03/12 04:17:07;;;;;;;;;;;16.70;62.60;;;;;;5114166;28;19908;-69
2024/03/12 04:19:35;;;;;;;;;;;16.60;62.70;;;;;;5114692;28;19961;-70
2024/03/12 04:22:00;;;;;;;;;;;16.60;62.70;;;;;;5114015;28;19958;-70
2024/03/12 04:24:25;;;;;;;;;;;16.60;62.80;;;;;;5114000;28;20285;-69
2024/03/12 04:26:52;;;;;;;;;;;16.60;62.70;;;;;;5114029;28;19908;-70
2024/03/12 04:29:18;;;;;;;;;;;16.60;62.60;;;;;;5113753;28;19923;-69
2024/03/12 04:31:43;;;;;;;;;;;16.50;62.60;;;;;;5113456;28;19907;-69
2024/03/12 04:34:09;;;;;;;;;;;16.70;62.80;;;;;;5113917;28;20396;-69
2024/03/12 04:36:35;;;;;;;;;;;16.60;62.90;;;;;;5113867;28;19907;-70
2024/03/12 04:39:14;;;;;;;;;;;16.60;62.80;;;;;;5095398;28;20366;-69
2024/03/12 04:41:39;;;;;;;;;;;16.50;62.80;;;;;;5120547;28;19912;-69
2024/03/12 04:44:05;;;;;;;;;;;16.70;63.00;;;;;;5113657;28;19914;-69
2024/03/12 04:46:30;;;;;;;;;;;16.50;62.70;;;;;;5113836;28;20369;-69
2024/03/12 04:48:56;;;;;;;;;;;16.60;63.10;;;;;;5114052;28;19916;-70
2024/03/12 04:51:21;;;;;;;;;;;16.50;63.20;;;;;;5113522;28;19967;-69
2024/03/12 04:53:47;;;;;;;;;;;16.50;63.20;;;;;;5113510;28;19908;-69
2024/03/12 04:56:16;;;;;;;;;;;16.50;63.20;;;;;;5113296;28;19908;-69
2024/03/12 04:58:41;;;;;;;;;;;16.60;63.20;;;;;;5113508;28;19930;-70
2024/03/12 05:01:07;;;;;;;;;;;16.60;62.90;;;;;;5113270;28;19908;-70
2024/03/12 05:03:32;;;;;;;;;;;16.50;63.40;;;;;;5113200;28;19979;-70
2024/03/12 05:05:58;;;;;;;;;;;16.60;63.60;;;;;;5113303;28;19907;-70
2024/03/12 05:08:23;;;;;;;;;;;16.60;63.60;;;;;;5113192;28;19936;-70
2024/03/12 05:10:49;;;;;;;;;;;16.80;63.70;;;;;;5113169;28;19915;-70
2024/03/12 05:13:15;;;;;;;;;;;16.50;63.70;;;;;;5113117;28;20301;-70
2024/03/12 05:15:44;;;;;;;;;;;16.60;63.40;;;;;;5113917;28;20274;-69
2024/03/12 05:18:09;;;;;;;;;;;16.60;60.00;;;;;;5113364;28;19912;-69
2024/03/12 05:20:36;;;;;;;;;;;16.60;63.70;;;;;;5113155;28;19953;-69
2024/03/12 05:23:03;;;;;;;;;;;16.60;63.90;;;;;;5112967;28;20358;-69
2024/03/12 05:25:42;;;;;;;;;;;16.50;63.80;;;;;;5112974;28;20016;-69
2024/03/12 05:28:08;;;;;;;;;;;16.50;60.50;;;;;;5113324;28;19908;-70
2024/03/12 05:30:35;;;;;;;;;;;16.50;63.90;;;;;;5112882;28;19959;-68
2024/03/12 05:33:04;;;;;;;;;;;16.50;63.60;;;;;;5112922;28;19908;-68
2024/03/12 05:35:31;;;;;;;;;;;16.60;64.10;;;;;;5112852;28;19955;-69
2024/03/12 05:38:03;;;;;;;;;;;16.40;63.50;;;;;;5112788;28;19914;-68
2024/03/12 05:40:56;;;;;;;;;;;16.60;61.60;;;;;;5112798;28;19912;-68
2024/03/12 05:48:50;;;;;;;;;;;16.50;61.00;;;;;;5117172;28;20327;-69
2024/03/12 05:51:16;;;;;;;;;;;16.60;64.00;;;;;;5116930;28;19908;-69
2024/03/12 05:53:42;;;;;;;;;;;16.90;64.40;;;;;;5116936;28;19911;-68
2024/03/12 05:56:11;;;;;;;;;;;16.50;63.80;;;;;;5116819;28;19915;-69
2024/03/12 05:58:37;;;;;;;;;;;16.50;63.50;;;;;;5116930;28;19960;-68
2024/03/12 06:01:04;;;;;;;;;;;16.60;63.10;;;;;;5116707;28;19912;-68
2024/03/12 06:03:30;;;;;;;;;;;16.50;63.60;;;;;;5116528;28;19967;-69
2024/03/12 06:05:56;;;;;;;;;;;16.60;63.90;;;;;;5116655;28;19908;-68
2024/03/12 06:08:22;;;;;;;;;;;16.50;63.50;;;;;;5116546;28;19969;-68
2024/03/12 06:10:48;;;;;;;;;;;16.50;63.70;;;;;;5116815;28;19907;-69
2024/03/12 06:13:14;;;;;;;;;;;16.50;63.90;;;;;;5116534;28;19908;-69
2024/03/12 06:15:39;;;;;;;;;;;16.50;63.60;;;;;;5116543;28;19914;-69
2024/03/12 06:18:05;;;;;;;;;;;16.30;63.70;;;;;;5116490;28;19915;-70
2024/03/12 06:20:31;;;;;;;;;;;16.50;63.40;;;;;;5116437;28;19908;-69
2024/03/12 06:22:57;;;;;;;;;;;16.60;63.70;;;;;;5116361;28;20003;-69
2024/03/12 06:25:22;;;;;;;;;;;16.50;63.90;;;;;;5116226;28;19907;-70
2024/03/12 06:27:49;;;;;;;;;;;16.50;63.80;;;;;;5116261;28;20357;-70
2024/03/12 06:30:15;;;;;;;;;;;16.60;63.80;;;;;;5116100;28;19916;-70
2024/03/12 06:32:41;;;;;;;;;;;16.50;63.70;;;;;;5116722;28;19968;-69
2024/03/12 06:35:07;;;;;;;;;;;16.50;63.70;;;;;;5116143;28;19908;-70
2024/03/12 06:37:33;;;;;;;;;;;16.50;62.70;;;;;;5116111;28;19915;-70
2024/03/12 06:39:59;;;;;;;;;;;16.50;63.60;;;;;;5115875;28;20293;-69
2024/03/12 06:42:29;;;;;;;;;;;16.50;63.80;;;;;;5115841;28;20392;-69
2024/03/12 06:44:54;;;;;;;;;;;16.50;63.40;;;;;;5115902;28;19908;-68
2024/03/12 06:47:20;;;;;;;;;;;16.50;63.80;;;;;;5115706;28;19915;-69
2024/03/12 06:49:47;;;;;;;;;;;16.50;63.50;;;;;;5115532;28;19934;-68
2024/03/12 06:52:14;;;;;;;;;;;16.50;63.00;;;;;;5115527;28;19917;-69
2024/03/12 06:54:40;;;;;;;;;;;16.50;63.70;;;;;;5115179;28;20006;-69
2024/03/12 06:57:07;;;;;;;;;;;16.50;63.20;;;;;;5115543;28;20068;-69
2024/03/12 06:59:36;;;;;;;;;;;16.50;63.40;;;;;;5115869;28;19948;-69
2024/03/12 07:02:01;;;;;;;;;;;16.50;63.20;;;;;;5115184;28;19920;-69
2024/03/12 07:04:34;;;;;;;;;;;16.40;63.30;;;;;;5115384;28;19907;-69
2024/03/12 07:07:05;;;;;;;;;;;16.40;63.40;;;;;;5122190;28;19908;-69
2024/03/12 07:09:37;;;;;;;;;;;16.60;63.60;;;;;;5115271;28;19922;-69
2024/03/12 07:12:05;;;;;;;;;;;16.50;63.70;;;;;;5122264;28;20331;-68
2024/03/12 07:14:39;;;;;;;;;;;16.60;62.90;;;;;;5115182;28;20373;-68
2024/03/12 07:17:07;;;;;;;;;;;16.50;63.50;;;;;;5123179;28;19908;-71
2024/03/12 07:19:33;;;;;;;;;;;16.50;63.20;;;;;;5115174;28;19908;-71
2024/03/12 07:21:59;;;;;;;;;;;16.40;63.20;;;;;;5114984;28;19967;-69
2024/03/12 07:24:25;;;;;;;;;;;16.50;63.00;;;;;;5096966;28;19915;-71
2024/03/12 07:26:50;;;;;;;;;;;16.50;63.20;;;;;;5115020;28;19908;-72
2024/03/12 07:29:15;;;;;;;;;;;16.50;63.40;;;;;;5115501;28;19923;-70
2024/03/12 07:31:41;;;;;;;;;;;16.50;63.40;;;;;;5114946;28;19911;-70
2024/03/12 07:34:06;;;;;;;;;;;16.50;63.10;;;;;;5114935;28;19908;-72
2024/03/12 07:36:35;;;;;;;;;;;16.50;63.20;;;;;;5114922;28;19960;-69
2024/03/12 07:39:08;;;;;;;;;;;16.50;63.10;;;;;;5096357;28;19947;-67
2024/03/12 07:41:37;;;;;;;;;;;16.50;63.10;;;;;;5121804;28;20011;-69
2024/03/12 07:44:03;;;;;;;;;;;16.40;59.20;;;;;;5114807;28;19908;-69
2024/03/12 07:46:29;;;;;;;;;;;16.40;62.70;;;;;;5114705;28;19938;-69
2024/03/12 07:48:55;;;;;;;;;;;16.50;62.80;;;;;;5114539;28;20366;-70
2024/03/12 07:51:20;;;;;;;;;;;16.40;63.00;;;;;;5114543;28;19908;-69
2024/03/12 07:53:46;;;;;;;;;;;16.50;62.80;;;;;;5114088;28;19998;-69
2024/03/12 07:56:14;;;;;;;;;;;16.40;63.20;;;;;;5114616;28;19908;-69
2024/03/12 07:58:40;;;;;;;;;;;16.50;62.40;;;;;;5115153;28;19918;-69
2024/03/12 08:01:07;;;;;;;;;;;16.50;62.10;;;;;;5114543;28;19908;-69
2024/03/12 08:03:36;;;;;;;;;;;16.40;62.80;;;;;;5114196;28;19926;-69
2024/03/12 08:06:03;;;;;;;;;;;16.40;63.00;;;;;;5113507;28;19915;-69
2024/03/12 08:08:29;;;;;;;;;;;16.40;62.10;;;;;;5114403;28;19962;-69
2024/03/12 08:10:57;;;;;;;;;;;16.40;62.70;;;;;;5114395;28;20381;-69
2024/03/12 08:13:23;;;;;;;;;;;16.50;62.60;;;;;;5114723;28;19995;-69
2024/03/12 08:15:49;;;;;;;;;;;16.50;62.60;;;;;;5113999;28;19908;-69
2024/03/12 08:18:16;;;;;;;;;;;16.40;62.70;;;;;;5114206;28;20019;-69
2024/03/12 08:20:41;;;;;;;;;;;16.50;62.60;;;;;;5114179;28;19915;-69
2024/03/12 08:23:08;;;;;;;;;;;16.40;62.40;;;;;;5114184;28;19914;-69
2024/03/12 08:25:34;;;;;;;;;;;16.50;62.30;;;;;;5114513;28;19907;-69
2024/03/12 08:28:00;;;;;;;;;;;16.40;62.60;;;;;;5114096;28;19913;-69
2024/03/12 08:30:26;;;;;;;;;;;16.40;62.20;;;;;;5113701;28;19961;-69
2024/03/12 08:32:52;;;;;;;;;;;17.00;63.00;;;;;;5113997;28;19909;-69
2024/03/12 08:35:18;;;;;;;;;;;16.40;62.30;;;;;;5113943;28;20259;-69
2024/03/12 08:37:44;;;;;;;;;;;16.40;62.20;;;;;;5114026;28;19915;-69
2024/03/12 08:40:14;;;;;;;;;;;16.40;62.40;;;;;;5113630;28;19907;-69
2024/03/12 08:42:56;;;;;;;;;;;16.40;62.00;;;;;;5112029;28;19932;-69
2024/03/12 08:45:22;;;;;;;;;;;16.40;62.70;;;;;;5113728;28;20315;-69
2024/03/12 08:47:48;;;;;;;;;;;16.40;62.70;;;;;;5113406;28;19912;-69
2024/03/12 08:50:14;;;;;;;;;;;16.50;63.00;;;;;;5113561;28;19924;-69
2024/03/12 08:52:40;;;;;;;;;;;16.60;62.70;;;;;;5113657;28;19907;-69
2024/03/12 08:55:06;;;;;;;;;;;16.50;62.60;;;;;;5114067;28;19912;-69
2024/03/12 08:57:32;;;;;;;;;;;16.40;61.50;;;;;;5113576;28;19916;-69
2024/03/12 09:00:00;;;;;;;;;;;16.40;62.80;;;;;;5113545;28;19908;-69
2024/03/12 09:02:27;;;;;;;;;;;16.70;62.60;;;;;;5112979;28;19980;-69
2024/03/12 09:04:53;;;;;;;;;;;16.40;62.70;;;;;;5113166;28;19907;-69
2024/03/12 09:07:19;;;;;;;;;;;16.50;62.60;;;;;;5113231;28;20002;-69
2024/03/12 09:09:45;;;;;;;;;;;16.40;62.80;;;;;;5113212;28;19958;-69
2024/03/12 09:12:13;;;;;;;;;;;16.40;62.80;;;;;;5113253;28;19951;-69
2024/03/12 09:14:40;;;;;;;;;;;16.50;62.40;;;;;;5112969;28;20453;-69
2024/03/12 09:17:07;;;;;;;;;;;16.50;62.70;;;;;;5112899;28;19908;-69
2024/03/12 09:19:33;;;;;;;;;;;16.50;62.80;;;;;;5112918;28;19915;-69
2024/03/12 09:22:00;;;;;;;;;;;16.40;62.70;;;;;;5113357;28;20096;-69
2024/03/12 09:24:26;;;;;;;;;;;16.50;62.90;;;;;;5113071;28;20277;-69
2024/03/12 09:26:53;;;;;;;;;;;16.60;63.00;;;;;;5113047;28;19983;-69
2024/03/12 09:29:20;;;;;;;;;;;16.50;62.80;;;;;;5112698;28;20015;-69
2024/03/12 09:31:46;;;;;;;;;;;16.90;63.00;;;;;;5113017;28;19907;-69
2024/03/12 09:34:12;;;;;;;;;;;16.50;62.60;;;;;;5112943;28;19915;-70
2024/03/12 09:36:38;;;;;;;;;;;16.50;63.00;;;;;;5112636;28;20297;-70
2024/03/12 09:39:10;;;;;;;;;;;16.50;62.80;;;;;;5112897;28;20319;-70
2024/03/12 09:41:38;;;;;;;;;;;16.60;62.60;;;;;;5113036;28;20290;-70
2024/03/12 09:44:06;;;;;;;;;;;16.60;62.90;;;;;;5112544;28;19908;-70
2024/03/12 09:46:32;;;;;;;;;;;16.50;62.70;;;;;;5112891;28;19911;-70
2024/03/12 09:48:58;;;;;;;;;;;16.60;62.60;;;;;;5112795;28;19934;-70
2024/03/12 09:51:25;;;;;;;;;;;16.60;62.60;;;;;;5113403;28;19927;-70
2024/03/12 09:53:51;;;;;;;;;;;16.40;62.70;;;;;;5112852;28;19914;-70
2024/03/12 09:56:18;;;;;;;;;;;16.60;62.60;;;;;;5112795;28;19995;-70
2024/03/12 09:58:44;;;;;;;;;;;16.60;62.60;;;;;;5112810;28;19994;-70
2024/03/12 10:01:12;;;;;;;;;;;16.80;61.70;;;;;;5112515;28;19962;-70
2024/03/12 10:03:38;;;;;;;;;;;16.50;62.60;;;;;;5112525;28;19923;-70
2024/03/12 10:06:05;;;;;;;;;;;16.50;62.50;;;;;;5112478;28;19908;-70
2024/03/12 10:08:31;;;;;;;;;;;16.60;62.40;;;;;;5112684;28;20039;-70
2024/03/12 10:10:57;;;;;;;;;;;16.60;62.60;;;;;;5112781;28;19912;-70
2024/03/12 10:13:24;;;;;;;;;;;16.60;62.80;;;;;;5112403;28;19915;-70
2024/03/12 10:15:56;;;;;;;;;;;16.90;62.80;;;;;;5112760;28;19912;-70
2024/03/12 10:18:22;;;;;;;;;;;16.60;58.80;;;;;;5112634;28;19927;-70
2024/03/12 10:20:50;;;;;;;;;;;16.50;62.60;;;;;;5113097;28;20371;-69
2024/03/12 10:23:18;;;;;;;;;;;16.60;62.90;;;;;;5112582;28;19908;-69
2024/03/12 10:25:48;;;;;;;;;;;16.70;62.90;;;;;;5112262;28;19912;-69
2024/03/12 10:28:16;;;;;;;;;;;16.60;63.10;;;;;;5112898;28;19908;-69
2024/03/12 10:30:43;;;;;;;;;;;16.60;62.80;;;;;;5116348;28;19916;-69
2024/03/12 10:33:11;;;;;;;;;;;16.50;62.80;;;;;;5116406;28;19930;-69
2024/03/12 10:35:37;;;;;;;;;;;16.70;62.90;;;;;;5116049;28;19907;-69
2024/03/12 10:38:03;;;;;;;;;;;16.60;62.70;;;;;;5116279;28;19907;-69
2024/03/12 10:40:29;;;;;;;;;;;16.60;62.70;;;;;;5116213;28;19911;-69
2024/03/12 10:43:01;;;;;;;;;;;16.60;62.70;;;;;;5116205;28;20320;-69
2024/03/12 10:45:29;;;;;;;;;;;16.70;63.00;;;;;;5116118;28;19914;-69
2024/03/12 10:47:56;;;;;;;;;;;15.80;62.40;;;;;;5116690;28;20354;-69
2024/03/12 10:50:26;;;;;;;;;;;16.70;62.60;;;;;;5115961;28;20003;-69
2024/03/12 10:52:54;;;;;;;;;;;16.80;62.20;;;;;;5115752;28;19915;-69
2024/03/12 10:55:21;;;;;;;;;;;17.00;62.70;;;;;;5115864;28;20057;-69
2024/03/12 10:57:50;;;;;;;;;;;16.70;62.70;;;;;;5115912;28;19908;-69
2024/03/12 11:00:20;;;;;;;;;;;16.80;58.40;;;;;;5115966;28;19915;-69
2024/03/12 11:02:49;;;;;;;;;;;16.90;61.70;;;;;;5115846;28;20016;-69
2024/03/12 11:05:18;;;;;;;;;;;16.90;58.40;;;;;;5115786;28;20049;-69
2024/03/12 11:07:47;;;;;;;;;;;16.90;62.20;;;;;;5115714;28;20289;-69
2024/03/12 11:10:14;;;;;;;;;;;17.40;61.70;;;;;;5115570;28;19916;-69
2024/03/12 11:12:43;;;;;;;;;;;17.10;61.50;;;;;;5115639;28;19973;-69
2024/03/12 11:15:09;;;;;;;;;;;17.10;61.50;;;;;;5115327;28;19908;-69
2024/03/12 11:17:37;;;;;;;;;;;17.10;61.10;;;;;;5115813;28;20382;-69
2024/03/12 11:20:05;;;;;;;;;;;17.30;60.90;;;;;;5115533;28;20288;-69
2024/03/12 11:22:35;;;;;;;;;;;17.60;60.00;;;;;;5115479;28;19946;-69
2024/03/12 11:25:08;;;;;;;;;;;17.60;60.30;;;;;;5115241;28;19908;-69
2024/03/12 11:27:36;;;;;;;;;;;17.70;60.20;;;;;;5115471;28;19907;-69
2024/03/12 11:30:03;;;;;;;;;;;17.80;59.90;;;;;;5115313;28;19916;-69
2024/03/12 11:32:36;;;;;;;;;;;17.90;60.00;;;;;;5114911;28;19995;-69
2024/03/12 11:35:09;;;;;;;;;;;17.90;56.00;;;;;;5115169;28;19915;-69
2024/03/12 11:37:37;;;;;;;;;;;18.00;55.90;;;;;;5115125;28;19991;-69
2024/03/12 11:40:22;;;;;;;;;;;18.10;59.20;;;;;;5114880;28;19991;-69
2024/03/12 11:42:48;;;;;;;;;;;18.20;55.70;;;;;;5115053;28;19943;-69
2024/03/12 11:45:36;;;;;;;;;;;18.20;59.00;;;;;;5115164;28;19907;-69
2024/03/12 11:48:06;;;;;;;;;;;18.20;55.50;;;;;;5114825;28;19908;-69
2024/03/12 11:50:33;;;;;;;;;;;18.20;58.70;;;;;;5114748;28;19938;-69
2024/03/12 11:53:17;;;;;;;;;;;18.10;59.30;;;;;;5114441;28;19908;-69
2024/03/12 11:56:05;;;;;;;;;;;18.10;56.00;;;;;;5114775;28;20343;-69
2024/03/12 11:58:38;;;;;;;;;;;18.20;56.20;;;;;;5114819;28;19915;-69
2024/03/12 12:01:06;;;;;;;;;;;18.20;59.20;;;;;;5114599;28;19912;-69
2024/03/12 12:03:34;;;;;;;;;;;18.10;59.80;;;;;;5114191;28;19920;-69
2024/03/12 12:06:00;;;;;;;;;;;18.10;60.00;;;;;;5114494;28;19908;-69
2024/03/12 12:08:27;;;;;;;;;;;18.10;59.90;;;;;;5114372;28;19915;-69
2024/03/12 12:11:03;;;;;;;;;;;18.00;60.30;;;;;;5114323;28;20271;-69
2024/03/12 12:13:29;;;;;;;;;;;18.00;57.00;;;;;;5114902;28;19919;-69
2024/03/12 12:15:56;;;;;;;;;;;17.90;60.40;;;;;;5114119;28;20294;-69
2024/03/12 12:18:22;;;;;;;;;;;18.00;61.00;;;;;;5114406;28;20307;-69
2024/03/12 12:20:48;;;;;;;;;;;18.00;61.00;;;;;;5114168;28;20294;-69
2024/03/12 12:23:14;;;;;;;;;;;17.90;61.20;;;;;;5114213;28;19908;-69
2024/03/12 12:25:41;;;;;;;;;;;17.80;61.00;;;;;;5114300;28;20373;-69
2024/03/12 12:28:07;;;;;;;;;;;17.80;61.30;;;;;;5114107;28;20060;-69
2024/03/12 12:30:35;;;;;;;;;;;17.80;61.40;;;;;;5114011;28;19951;-69
2024/03/12 12:33:01;;;;;;;;;;;17.80;61.40;;;;;;5113581;28;20393;-69
2024/03/12 12:35:28;;;;;;;;;;;17.70;62.00;;;;;;5113980;28;19908;-69
2024/03/12 12:37:55;;;;;;;;;;;17.70;61.90;;;;;;5113794;28;19915;-69
2024/03/12 12:40:21;;;;;;;;;;;17.70;62.20;;;;;;5113719;28;19908;-69
2024/03/12 12:42:53;;;;;;;;;;;17.70;62.00;;;;;;5114365;28;19914;-69
2024/03/12 12:45:19;;;;;;;;;;;17.70;58.40;;;;;;5113741;28;19939;-69
2024/03/12 12:47:48;;;;;;;;;;;17.70;61.90;;;;;;5113572;28;19966;-69
2024/03/12 12:50:27;;;;;;;;;;;17.80;62.00;;;;;;5113725;28;20026;-69
2024/03/12 12:53:00;;;;;;;;;;;17.80;58.30;;;;;;5113390;28;19908;-69
2024/03/12 12:55:27;;;;;;;;;;;17.70;58.30;;;;;;5113422;28;19914;-69
2024/03/12 12:57:59;;;;;;;;;;;17.80;62.20;;;;;;5113249;28;19920;-69
2024/03/12 13:00:25;;;;;;;;;;;17.70;58.30;;;;;;5113628;28;19908;-69
2024/03/12 13:02:53;;;;;;;;;;;16.30;60.70;;;;;;5113059;28;19920;-69
2024/03/12 13:05:20;;;;;;;;;;;17.70;62.10;;;;;;5113550;28;19907;-69
2024/03/12 13:07:46;;;;;;;;;;;17.80;62.50;;;;;;5113421;28;19915;-69
2024/03/12 13:10:18;;;;;;;;;;;17.70;62.00;;;;;;5113427;28;19920;-69
2024/03/12 13:12:45;;;;;;;;;;;17.80;61.80;;;;;;5113427;28;19915;-69
2024/03/12 13:15:33;;;;;;;;;;;17.70;62.10;;;;;;5112912;28;19916;-69
2024/03/12 13:17:59;;;;;;;;;;;17.60;62.30;;;;;;5113329;28;19919;-69
2024/03/12 13:20:25;;;;;;;;;;;17.60;62.10;;;;;;5113252;28;19915;-69
2024/03/12 13:22:52;;;;;;;;;;;16.20;61.40;;;;;;5112934;28;19907;-69
2024/03/12 13:25:21;;;;;;;;;;;17.50;61.90;;;;;;5113220;28;19946;-69
2024/03/12 13:27:47;;;;;;;;;;;17.60;62.10;;;;;;5113146;28;19915;-69
2024/03/12 13:30:14;;;;;;;;;;;17.60;62.20;;;;;;5112734;28;19916;-69
2024/03/12 13:32:41;;;;;;;;;;;17.60;62.00;;;;;;5113046;28;19933;-69
2024/03/12 13:35:08;;;;;;;;;;;17.60;62.30;;;;;;5113036;28;19908;-69
2024/03/12 13:37:34;;;;;;;;;;;17.60;62.00;;;;;;5113037;28;19908;-69
2024/03/12 13:40:00;;;;;;;;;;;17.60;62.20;;;;;;5113251;28;20358;-69
2024/03/12 13:42:26;;;;;;;;;;;17.60;62.10;;;;;;5112872;28;20331;-69
2024/03/12 13:44:52;;;;;;;;;;;17.70;62.20;;;;;;5112630;28;19907;-69
2024/03/12 13:47:18;;;;;;;;;;;17.60;62.10;;;;;;5112945;28;19911;-69
2024/03/12 13:49:44;;;;;;;;;;;17.60;62.10;;;;;;5112930;28;19916;-69
2024/03/12 13:52:10;;;;;;;;;;;17.60;62.10;;;;;;5112691;28;19907;-69
2024/03/12 13:54:36;;;;;;;;;;;17.60;62.10;;;;;;5112899;28;19960;-69
2024/03/12 13:57:03;;;;;;;;;;;17.60;62.10;;;;;;5112584;28;19908;-69
2024/03/12 13:59:28;;;;;;;;;;;17.60;61.80;;;;;;5112529;28;20324;-69
2024/03/12 14:01:56;;;;;;;;;;;17.60;61.70;;;;;;5112534;28;19919;-69
2024/03/12 14:04:23;;;;;;;;;;;17.70;62.20;;;;;;5115421;28;19957;-69
2024/03/12 14:06:49;;;;;;;;;;;17.60;61.90;;;;;;5116896;28;20331;-68
2024/03/12 14:09:15;;;;;;;;;;;17.70;62.20;;;;;;5116413;28;19995;-69
2024/03/12 14:11:41;;;;;;;;;;;17.60;62.00;;;;;;5116817;28;20038;-68
2024/03/12 14:14:11;;;;;;;;;;;17.50;62.00;;;;;;5116788;28;19947;-68
2024/03/12 14:16:37;;;;;;;;;;;17.50;59.20;;;;;;5116639;28;20390;-68
2024/03/12 14:19:03;;;;;;;;;;;17.60;62.10;;;;;;5116669;28;20011;-69
2024/03/12 14:21:29;;;;;;;;;;;17.60;61.70;;;;;;5116542;28;20266;-68
2024/03/12 14:23:55;;;;;;;;;;;17.70;62.40;;;;;;5116721;28;19914;-69